createdAt,value
2022-10-28T00:01:27.982Z,23.40
2022-10-28T00:03:58.605Z,23.40
2022-10-28T00:06:32.638Z,23.40
2022-10-28T00:09:00.434Z,23.40
2022-10-28T00:11:34.110Z,23.40
2022-10-28T00:14:04.485Z,23.40
2022-10-28T00:16:34.564Z,23.40
2022-10-28T00:19:03.466Z,23.40
2022-10-28T00:21:33.534Z,23.50
2022-10-28T00:24:00.374Z,23.50
2022-10-28T00:26:31.440Z,23.40
2022-10-28T00:29:08.412Z,23.40
2022-10-28T00:31:37.688Z,23.40
2022-10-28T00:34:07.782Z,23.30
2022-10-28T00:36:39.313Z,23.30
2022-10-28T00:39:16.705Z,23.30
2022-10-28T00:42:03.760Z,23.20
2022-10-28T00:44:58.093Z,23.20
2022-10-28T00:47:45.825Z,23.20
2022-10-28T00:50:46.405Z,23.20
2022-10-28T00:53:28.188Z,23.10
2022-10-28T00:55:58.443Z,23.10
2022-10-28T00:58:27.091Z,23.10
2022-10-28T01:00:54.750Z,23.10
2022-10-28T01:03:22.564Z,23.00
2022-10-28T01:05:51.576Z,23.00
2022-10-28T01:08:19.149Z,23.10
2022-10-28T01:10:57.659Z,23.00
2022-10-28T01:13:52.189Z,23.00
2022-10-28T01:16:38.555Z,23.00
2022-10-28T01:19:35.878Z,23.00
2022-10-28T01:25:12.757Z,22.90
2022-10-28T01:27:57.275Z,22.90
2022-10-28T01:30:27.292Z,22.80
2022-10-28T01:33:23.154Z,22.90
2022-10-28T01:36:08.830Z,22.90
2022-10-28T01:39:33.868Z,22.80
2022-10-28T01:42:20.649Z,22.80
2022-10-28T01:45:07.282Z,22.80
2022-10-28T01:47:53.262Z,22.80
2022-10-28T01:50:50.637Z,22.80
2022-10-28T01:53:23.094Z,22.70
2022-10-28T01:55:55.389Z,22.70
2022-10-28T01:58:29.447Z,22.70
2022-10-28T02:00:58.307Z,22.70
2022-10-28T02:03:25.643Z,22.60
2022-10-28T02:05:56.900Z,22.60
2022-10-28T02:08:46.359Z,22.60
2022-10-28T02:12:23.447Z,22.50
2022-10-28T02:15:29.260Z,22.50
2022-10-28T02:18:17.777Z,22.50
2022-10-28T02:20:56.192Z,22.40
2022-10-28T02:23:54.163Z,22.40
2022-10-28T02:26:39.790Z,22.40
2022-10-28T02:29:17.375Z,22.30
2022-10-28T02:31:58.127Z,22.30
2022-10-28T02:34:37.558Z,22.30
2022-10-28T02:37:19.600Z,22.20
2022-10-28T02:39:53.048Z,22.20
2022-10-28T02:42:30.128Z,22.20
2022-10-28T02:45:22.310Z,22.20
2022-10-28T02:47:59.080Z,22.00
2022-10-28T02:50:35.169Z,22.10
2022-10-28T02:53:29.367Z,22.10
2022-10-28T02:56:00.319Z,22.00
2022-10-28T02:58:27.271Z,22.00
2022-10-28T03:00:54.109Z,22.00
2022-10-28T03:03:20.924Z,22.00
2022-10-28T03:05:47.672Z,22.10
2022-10-28T03:08:14.379Z,21.90
2022-10-28T03:10:41.165Z,21.90
2022-10-28T03:13:07.862Z,21.80
2022-10-28T03:15:34.582Z,21.70
2022-10-28T03:18:01.361Z,21.80
2022-10-28T03:20:28.125Z,21.80
2022-10-28T03:22:55.185Z,21.80
2022-10-28T03:25:22.295Z,21.80
2022-10-28T03:27:49.010Z,21.70
2022-10-28T03:30:18.313Z,21.80
2022-10-28T03:32:45.102Z,21.70
2022-10-28T03:35:13.026Z,21.90
2022-10-28T03:37:44.292Z,21.70
2022-10-28T03:40:13.008Z,21.70
2022-10-28T03:42:42.806Z,21.60
2022-10-28T03:45:10.630Z,21.60
2022-10-28T03:47:37.397Z,21.60
2022-10-28T03:50:04.512Z,21.60
2022-10-28T03:52:31.266Z,21.50
2022-10-28T03:54:58.183Z,21.50
2022-10-28T03:57:24.961Z,21.50
2022-10-28T03:59:51.695Z,21.60
2022-10-28T04:02:18.541Z,21.40
2022-10-28T04:04:45.354Z,21.40
2022-10-28T04:07:12.164Z,21.20
2022-10-28T04:09:38.896Z,21.30
2022-10-28T04:12:06.837Z,21.30
2022-10-28T04:14:33.576Z,21.30
2022-10-28T04:17:00.496Z,21.10
2022-10-28T04:19:27.548Z,21.20
2022-10-28T04:21:54.469Z,21.40
2022-10-28T04:24:21.309Z,21.20
2022-10-28T04:26:48.051Z,21.20
2022-10-28T04:29:14.776Z,21.20
2022-10-28T04:31:41.492Z,21.20
2022-10-28T04:34:08.228Z,21.10
2022-10-28T04:36:34.958Z,21.20
2022-10-28T04:39:01.807Z,21.10
2022-10-28T04:41:28.602Z,21.10
2022-10-28T04:43:56.261Z,21.10
2022-10-28T04:46:23.062Z,21.10
2022-10-28T04:48:49.793Z,21.10
2022-10-28T04:51:16.538Z,21.10
2022-10-28T04:53:43.248Z,21.10
2022-10-28T04:56:10.113Z,21.00
2022-10-28T04:58:36.809Z,21.00
2022-10-28T05:01:08.415Z,21.00
2022-10-28T05:03:35.714Z,21.00
2022-10-28T05:06:02.921Z,21.00
2022-10-28T05:08:29.774Z,21.00
2022-10-28T05:10:56.533Z,20.90
2022-10-28T05:13:23.348Z,21.00
2022-10-28T05:15:50.809Z,20.90
2022-10-28T05:18:18.305Z,20.90
2022-10-28T05:20:45.118Z,20.90
2022-10-28T05:23:12.312Z,20.80
2022-10-28T05:25:39.168Z,21.00
2022-10-28T05:28:05.898Z,20.80
2022-10-28T05:30:32.657Z,20.80
2022-10-28T05:33:04.083Z,20.80
2022-10-28T05:35:31.787Z,20.80
2022-10-28T05:37:58.618Z,20.80
2022-10-28T05:40:25.448Z,20.80
2022-10-28T05:42:52.560Z,20.80
2022-10-28T05:45:19.706Z,20.70
2022-10-28T05:47:48.639Z,20.80
2022-10-28T05:50:18.710Z,20.70
2022-10-28T05:52:52.081Z,20.70
2022-10-28T05:55:20.904Z,20.70
2022-10-28T05:57:50.227Z,20.70
2022-10-28T06:00:21.124Z,20.70
2022-10-28T06:02:48.153Z,20.70
2022-10-28T06:05:15.856Z,20.70
2022-10-28T06:07:43.496Z,20.60
2022-10-28T06:10:11.865Z,20.70
2022-10-28T06:12:37.619Z,20.70
2022-10-28T06:15:04.976Z,20.60
2022-10-28T06:17:31.687Z,20.60
2022-10-28T06:19:58.412Z,20.60
2022-10-28T06:22:25.149Z,20.60
2022-10-28T06:24:51.873Z,20.60
2022-10-28T06:27:18.557Z,20.60
2022-10-28T06:29:45.249Z,20.60
2022-10-28T06:32:11.926Z,20.60
2022-10-28T06:34:38.708Z,20.60
2022-10-28T06:37:05.707Z,20.60
2022-10-28T06:39:32.908Z,20.80
2022-10-28T06:41:59.804Z,20.70
2022-10-28T06:44:26.562Z,20.70
2022-10-28T06:46:55.341Z,21.00
2022-10-28T06:49:22.152Z,20.80
2022-10-28T06:51:49.838Z,20.70
2022-10-28T06:54:16.557Z,20.80
2022-10-28T06:56:45.244Z,20.90
2022-10-28T06:59:12.075Z,20.90
2022-10-28T07:01:39.120Z,20.90
2022-10-28T07:04:08.804Z,21.00
2022-10-28T07:06:35.476Z,21.10
2022-10-28T07:09:02.185Z,21.00
2022-10-28T07:11:28.897Z,21.00
2022-10-28T07:13:55.574Z,21.00
2022-10-28T07:16:22.340Z,21.10
2022-10-28T07:18:49.005Z,21.10
2022-10-28T07:21:18.233Z,21.10
2022-10-28T07:23:47.283Z,21.10
2022-10-28T07:26:14.065Z,21.20
2022-10-28T07:28:42.807Z,21.20
2022-10-28T07:33:41.254Z,21.30
2022-10-28T07:36:08.474Z,21.40
2022-10-28T07:38:35.278Z,21.40
2022-10-28T07:41:08.374Z,21.40
2022-10-28T07:43:39.358Z,21.50
2022-10-28T07:46:08.046Z,21.50
2022-10-28T07:48:36.933Z,21.70
2022-10-28T07:51:06.003Z,21.80
2022-10-28T07:53:33.743Z,21.90
2022-10-28T07:56:05.728Z,22.20
2022-10-28T07:58:32.645Z,22.50
2022-10-28T08:01:08.450Z,22.70
2022-10-28T08:03:38.993Z,23.00
2022-10-28T08:06:17.397Z,23.30
2022-10-28T08:08:46.599Z,23.50
2022-10-28T08:11:18.840Z,23.70
2022-10-28T08:13:47.081Z,23.80
2022-10-28T08:16:14.000Z,24.00
2022-10-28T08:18:41.371Z,24.00
2022-10-28T08:21:11.011Z,23.90
2022-10-28T08:23:38.406Z,24.10
2022-10-28T08:26:05.894Z,24.20
2022-10-28T08:28:32.732Z,24.40
2022-10-28T08:31:08.599Z,24.60
2022-10-28T08:33:46.893Z,24.80
2022-10-28T08:36:16.595Z,25.20
2022-10-28T08:38:45.855Z,25.50
2022-10-28T08:41:45.035Z,25.80
2022-10-28T08:44:38.915Z,26.10
2022-10-28T08:47:34.596Z,26.30
2022-10-28T08:50:16.405Z,26.50
2022-10-28T08:53:05.466Z,26.70
2022-10-28T08:55:38.488Z,26.70
2022-10-28T08:58:16.526Z,26.80
2022-10-28T09:00:50.527Z,26.80
2022-10-28T09:03:25.589Z,26.90
2022-10-28T09:06:04.274Z,26.90
2022-10-28T09:08:37.467Z,27.00
2022-10-28T09:11:37.918Z,27.50
2022-10-28T09:15:02.847Z,27.90
2022-10-28T09:17:51.040Z,28.40
2022-10-28T09:20:51.154Z,29.10
2022-10-28T09:23:42.577Z,29.70
2022-10-28T09:26:41.994Z,30.40
2022-10-28T09:30:05.353Z,31.00
2022-10-28T09:33:07.084Z,31.70
2022-10-28T09:35:45.407Z,32.40
2022-10-28T09:38:28.544Z,32.90
2022-10-28T09:41:02.818Z,33.20
2022-10-28T09:43:36.910Z,33.60
2022-10-28T09:46:18.433Z,33.90
2022-10-28T09:48:55.663Z,34.00
2022-10-28T09:52:04.416Z,34.10
2022-10-28T09:54:44.259Z,34.10
2022-10-28T09:57:13.760Z,34.10
2022-10-28T09:59:44.336Z,34.00
2022-10-28T10:02:28.580Z,34.00
2022-10-28T10:05:01.902Z,34.00
2022-10-28T10:07:43.363Z,33.90
2022-10-28T10:10:23.108Z,33.90
2022-10-28T10:12:53.093Z,33.80
2022-10-28T10:15:35.696Z,33.70
2022-10-28T10:18:05.893Z,33.60
2022-10-28T10:20:58.575Z,33.50
2022-10-28T10:23:33.012Z,33.30
2022-10-28T10:26:12.806Z,33.10
2022-10-28T10:28:45.316Z,33.10
2022-10-28T10:31:26.484Z,33.00
2022-10-28T10:33:56.665Z,33.10
2022-10-28T10:36:28.719Z,33.20
2022-10-28T10:39:01.898Z,33.40
2022-10-28T10:41:39.794Z,33.60
2022-10-28T10:44:35.749Z,33.90
2022-10-28T10:47:06.015Z,34.20
2022-10-28T10:49:37.158Z,34.50
2022-10-28T10:52:15.862Z,34.70
2022-10-28T10:54:59.150Z,35.10
2022-10-28T10:57:26.851Z,35.20
2022-10-28T10:59:56.421Z,35.40
2022-10-28T11:02:39.696Z,35.50
2022-10-28T11:05:10.876Z,35.70
2022-10-28T11:07:47.777Z,35.70
2022-10-28T11:10:35.378Z,35.70
2022-10-28T11:13:26.070Z,35.70
2022-10-28T11:16:16.346Z,35.60
2022-10-28T11:18:46.736Z,35.50
2022-10-28T11:21:31.335Z,35.50
2022-10-28T11:24:33.557Z,35.40
2022-10-28T11:27:17.477Z,35.40
2022-10-28T11:29:46.203Z,35.40
2022-10-28T11:32:27.103Z,35.20
2022-10-28T11:35:07.713Z,35.20
2022-10-28T11:38:12.843Z,35.00
2022-10-28T11:41:00.760Z,34.90
2022-10-28T11:43:57.562Z,34.80
2022-10-28T11:46:46.717Z,34.60
2022-10-28T11:49:25.294Z,34.50
2022-10-28T11:52:16.670Z,34.40
2022-10-28T11:55:26.030Z,34.20
2022-10-28T11:58:27.944Z,34.10
2022-10-28T12:01:21.176Z,33.90
2022-10-28T12:04:08.861Z,33.80
2022-10-28T12:07:16.830Z,33.60
2022-10-28T12:10:11.726Z,33.40
2022-10-28T12:12:57.024Z,33.20
2022-10-28T12:16:04.453Z,32.90
2022-10-28T12:19:04.503Z,32.70
2022-10-28T12:21:45.911Z,32.60
2022-10-28T12:24:21.185Z,32.40
2022-10-28T12:26:57.953Z,32.30
2022-10-28T12:29:33.658Z,32.10
2022-10-28T12:32:15.051Z,31.90
2022-10-28T12:35:00.549Z,31.70
2022-10-28T12:37:53.097Z,31.60
2022-10-28T12:40:24.449Z,31.50
2022-10-28T12:43:11.768Z,31.40
2022-10-28T12:45:41.441Z,31.30
2022-10-28T12:48:42.608Z,31.20
2022-10-28T12:51:40.719Z,31.10
2022-10-28T12:54:38.233Z,31.00
2022-10-28T12:57:13.418Z,30.90
2022-10-28T12:59:59.492Z,30.80
2022-10-28T13:02:54.563Z,30.80
2022-10-28T13:05:53.313Z,30.70
2022-10-28T13:08:58.297Z,30.60
2022-10-28T13:12:17.087Z,30.50
2022-10-28T13:15:20.794Z,30.40
2022-10-28T13:18:25.097Z,30.40
2022-10-28T13:21:41.568Z,30.30
2022-10-28T13:25:06.953Z,30.30
2022-10-28T13:27:34.198Z,30.20
2022-10-28T13:30:03.434Z,30.20
2022-10-28T13:32:38.367Z,30.10
2022-10-28T13:35:26.501Z,30.00
2022-10-28T13:37:56.172Z,29.90
2022-10-28T13:40:39.093Z,29.80
2022-10-28T13:43:19.247Z,29.70
2022-10-28T13:45:49.344Z,29.70
2022-10-28T13:48:42.921Z,29.50
2022-10-28T13:51:09.553Z,29.40
2022-10-28T13:53:55.366Z,29.40
2022-10-28T13:56:31.700Z,29.20
2022-10-28T13:59:17.642Z,29.10
2022-10-28T14:02:39.615Z,29.00
2022-10-28T14:05:20.850Z,28.90
2022-10-28T14:07:59.755Z,28.80
2022-10-28T14:10:30.174Z,28.70
2022-10-28T14:13:19.487Z,28.60
2022-10-28T14:15:48.201Z,28.50
2022-10-28T14:18:41.364Z,28.40
2022-10-28T14:21:02.476Z,28.20
2022-10-28T14:23:29.171Z,28.20
2022-10-28T14:25:59.695Z,28.10
2022-10-28T14:28:29.339Z,28.10
2022-10-28T14:31:07.949Z,27.90
2022-10-28T14:33:37.422Z,27.90
2022-10-28T14:36:19.296Z,27.90
2022-10-28T14:39:04.455Z,27.80
2022-10-28T14:41:36.874Z,27.80
2022-10-28T14:44:24.561Z,27.70
2022-10-28T14:47:43.483Z,27.60
2022-10-28T14:50:28.866Z,27.50
2022-10-28T14:52:57.233Z,27.40
2022-10-28T14:55:31.925Z,27.40
2022-10-28T14:58:28.140Z,27.30
2022-10-28T15:01:16.673Z,27.20
2022-10-28T15:03:48.626Z,27.20
2022-10-28T15:06:32.214Z,27.10
2022-10-28T15:09:10.973Z,27.00
2022-10-28T15:11:44.174Z,27.00
2022-10-28T15:14:26.257Z,26.80
2022-10-28T15:16:54.243Z,26.80
2022-10-28T15:19:25.376Z,26.70
2022-10-28T15:22:31.212Z,26.70
2022-10-28T15:25:05.521Z,26.50
2022-10-28T15:27:38.987Z,26.50
2022-10-28T15:30:25.283Z,26.40
2022-10-28T15:32:54.153Z,26.30
2022-10-28T15:35:27.136Z,26.20
2022-10-28T15:38:00.907Z,26.10
2022-10-28T15:40:33.866Z,26.00
2022-10-28T15:43:05.667Z,25.90
2022-10-28T15:45:41.232Z,25.80
2022-10-28T15:48:18.708Z,25.70
2022-10-28T15:50:45.628Z,25.70
2022-10-28T15:53:32.508Z,25.60
2022-10-28T15:56:14.566Z,25.50
2022-10-28T15:58:49.380Z,25.40
2022-10-28T16:01:34.765Z,25.40
2022-10-28T16:04:01.676Z,25.30
2022-10-28T16:06:34.634Z,25.20
2022-10-28T16:09:27.849Z,25.20
2022-10-28T16:12:02.305Z,25.00
2022-10-28T16:14:32.028Z,25.00
2022-10-28T16:17:15.510Z,24.90
2022-10-28T16:19:57.092Z,24.90
2022-10-28T16:22:26.972Z,24.70
2022-10-28T16:24:55.134Z,24.80
2022-10-28T16:27:30.343Z,24.60
2022-10-28T16:29:57.601Z,24.50
2022-10-28T16:32:35.286Z,24.40
2022-10-28T16:35:03.038Z,24.40
2022-10-28T16:37:34.099Z,24.40
2022-10-28T16:40:00.784Z,24.30
2022-10-28T16:42:27.903Z,24.30
2022-10-28T16:44:54.687Z,24.10
2022-10-28T16:47:26.713Z,24.10
2022-10-28T16:49:57.268Z,24.10
2022-10-28T16:52:29.129Z,24.10
2022-10-28T16:54:57.005Z,23.90
2022-10-28T16:59:51.556Z,23.80
2022-10-28T17:02:44.667Z,23.70
2022-10-28T17:05:23.825Z,23.60
2022-10-28T17:07:50.659Z,23.50
2022-10-28T17:10:17.873Z,23.50
2022-10-28T17:12:44.586Z,23.40
2022-10-28T17:15:11.366Z,23.40
2022-10-28T17:17:38.208Z,23.30
2022-10-28T17:20:06.358Z,23.20
2022-10-28T17:22:33.205Z,23.20
2022-10-28T17:25:00.101Z,23.10
2022-10-28T17:27:27.193Z,23.00
2022-10-28T17:29:54.021Z,23.00
2022-10-28T17:32:20.841Z,23.00
2022-10-28T17:34:47.697Z,22.90
2022-10-28T17:37:14.439Z,22.90
2022-10-28T17:39:42.293Z,22.80
2022-10-28T17:42:09.516Z,23.10
2022-10-28T17:44:36.697Z,23.00
2022-10-28T17:47:03.583Z,22.70
2022-10-28T17:49:30.804Z,22.60
2022-10-28T17:51:57.554Z,22.60
2022-10-28T17:56:56.449Z,22.50
2022-10-28T17:59:23.332Z,22.50
2022-10-28T18:01:50.150Z,22.50
2022-10-28T18:04:17.430Z,22.40
2022-10-28T18:06:44.192Z,22.40
2022-10-28T18:09:12.749Z,22.40
2022-10-28T18:11:39.912Z,22.40
2022-10-28T18:14:07.011Z,22.30
2022-10-28T18:16:37.000Z,22.30
2022-10-28T18:19:07.720Z,22.30
2022-10-28T18:21:35.458Z,22.30
2022-10-28T18:24:05.125Z,22.20
2022-10-28T18:26:37.739Z,22.20
2022-10-28T18:29:09.203Z,22.20
2022-10-28T18:31:38.326Z,22.30
2022-10-28T18:34:05.150Z,22.10
2022-10-28T18:36:35.475Z,22.10
2022-10-28T18:39:07.629Z,22.10
2022-10-28T18:41:40.197Z,22.00
2022-10-28T18:44:14.124Z,22.00
2022-10-28T18:46:42.607Z,22.00
2022-10-28T18:49:09.333Z,22.40
2022-10-28T18:51:37.380Z,21.80
2022-10-28T18:54:04.463Z,21.90
2022-10-28T18:56:31.251Z,21.90
2022-10-28T18:59:01.361Z,22.10
2022-10-28T19:01:29.304Z,21.80
2022-10-28T19:03:59.397Z,22.20
2022-10-28T19:06:34.941Z,21.80
2022-10-28T19:09:04.673Z,21.80
2022-10-28T19:11:33.487Z,21.80
2022-10-28T19:14:04.261Z,21.80
2022-10-28T19:16:33.647Z,21.80
2022-10-28T19:19:04.423Z,21.80
2022-10-28T19:21:32.089Z,21.60
2022-10-28T19:23:59.251Z,21.70
2022-10-28T19:26:26.066Z,21.70
2022-10-28T19:28:52.905Z,22.00
2022-10-28T19:31:26.025Z,21.70
2022-10-28T19:33:54.426Z,21.70
2022-10-28T19:36:29.898Z,21.70
2022-10-28T19:38:57.949Z,21.70
2022-10-28T19:41:28.117Z,21.70
2022-10-28T19:44:00.552Z,21.70
2022-10-28T19:46:33.964Z,21.70
2022-10-28T19:49:05.239Z,21.70
2022-10-28T19:51:36.130Z,21.70
2022-10-28T19:54:12.409Z,21.70
2022-10-28T19:56:40.159Z,21.70
2022-10-28T19:59:07.300Z,21.60
2022-10-28T20:01:37.593Z,21.60
2022-10-28T20:04:05.104Z,21.60
2022-10-28T20:06:35.667Z,21.60
2022-10-28T20:09:03.735Z,21.60
2022-10-28T20:11:34.310Z,21.60
2022-10-28T20:14:11.613Z,21.60
2022-10-28T20:16:42.531Z,21.60
2022-10-28T20:19:09.991Z,21.60
2022-10-28T20:21:38.095Z,21.60
2022-10-28T20:24:08.521Z,21.50
2022-10-28T20:26:37.732Z,21.50
2022-10-28T20:29:06.544Z,21.40
2022-10-28T20:31:33.858Z,21.60
2022-10-28T20:34:03.836Z,21.50
2022-10-28T20:36:33.361Z,21.50
2022-10-28T20:39:09.533Z,21.40
2022-10-28T20:41:38.737Z,21.40
2022-10-28T20:44:06.815Z,21.70
2022-10-28T20:46:34.296Z,21.40
2022-10-28T20:49:01.755Z,21.30
2022-10-28T20:51:31.807Z,21.30
2022-10-28T20:53:59.184Z,21.30
2022-10-28T20:56:29.736Z,21.30
2022-10-28T20:58:57.929Z,21.30
2022-10-28T21:01:28.061Z,21.30
2022-10-28T21:04:01.106Z,21.30
2022-10-28T21:06:29.082Z,21.30
2022-10-28T21:08:56.635Z,21.30
2022-10-28T21:11:24.953Z,21.20
2022-10-28T21:13:56.565Z,21.20
2022-10-28T21:16:25.263Z,21.20
2022-10-28T21:18:53.168Z,21.20
2022-10-28T21:21:21.560Z,21.20
2022-10-28T21:23:48.337Z,21.40
2022-10-28T21:26:15.317Z,21.20
2022-10-28T21:28:42.191Z,21.20
2022-10-28T21:31:16.083Z,21.10
2022-10-28T21:33:43.521Z,21.20
2022-10-28T21:36:14.963Z,21.20
2022-10-28T21:38:42.440Z,21.20
2022-10-28T21:41:14.359Z,21.10
2022-10-28T21:43:44.593Z,21.10
2022-10-28T21:46:11.802Z,21.30
2022-10-28T21:48:38.794Z,21.10
2022-10-28T21:51:13.537Z,21.10
2022-10-28T21:53:43.378Z,21.00
2022-10-28T21:56:19.655Z,21.00
2022-10-28T21:58:51.266Z,21.00
2022-10-28T22:01:24.124Z,21.00
2022-10-28T22:03:54.448Z,21.00
2022-10-28T22:06:21.775Z,20.90
2022-10-28T22:08:48.498Z,20.90
2022-10-28T22:11:19.552Z,20.90
2022-10-28T22:13:48.118Z,20.90
2022-10-28T22:16:17.966Z,20.80
2022-10-28T22:18:45.751Z,20.80
2022-10-28T22:21:23.162Z,20.80
2022-10-28T22:23:50.800Z,20.80
2022-10-28T22:26:21.202Z,20.70
2022-10-28T22:28:48.839Z,20.80
2022-10-28T22:31:20.115Z,20.80
2022-10-28T22:36:22.731Z,21.00
2022-10-28T22:38:50.488Z,20.80
2022-10-28T22:41:25.999Z,20.80
2022-10-28T22:43:56.556Z,20.80
2022-10-28T22:46:26.137Z,20.80
2022-10-28T22:48:53.404Z,20.80
2022-10-28T22:51:20.580Z,20.80
2022-10-28T22:53:47.586Z,20.90
2022-10-28T22:56:20.214Z,20.90
2022-10-28T22:58:57.652Z,20.90
2022-10-28T23:01:27.493Z,20.90
2022-10-28T23:03:55.378Z,20.90
2022-10-28T23:06:25.860Z,20.90
2022-10-28T23:08:53.588Z,20.80
2022-10-28T23:11:22.196Z,20.90
2022-10-28T23:13:53.613Z,20.90
2022-10-28T23:16:21.878Z,20.90
2022-10-28T23:18:48.857Z,20.90
2022-10-28T23:21:22.791Z,20.90
2022-10-28T23:23:58.368Z,20.90
2022-10-28T23:26:29.571Z,20.90
2022-10-28T23:28:59.528Z,20.90
2022-10-28T23:31:27.820Z,20.90
2022-10-28T23:33:55.312Z,20.90
2022-10-28T23:36:22.134Z,20.90
2022-10-28T23:38:48.904Z,20.90
2022-10-28T23:41:18.661Z,21.00
2022-10-28T23:43:47.156Z,20.90
2022-10-28T23:46:13.945Z,20.90
2022-10-28T23:48:40.678Z,20.90
2022-10-28T23:51:07.583Z,20.90
2022-10-28T23:53:35.086Z,20.90
2022-10-28T23:56:02.020Z,20.90
2022-10-28T23:58:28.736Z,20.90
